Time;durP1;ratioP1;P1;durP2;ratioP2;P2;SDS_P1;SDS_P2;PMS_P1;PMS_P2;Temp;Humidity;BMP_temperature;BMP_pressure;BME280_temperature;BME280_humidity;BME280_pressure;Samples;Min_cycle;Max_cycle;Signal;HPM_P1;HPM_P2
2022/11/10 00:01:51;;;;;;;15.37;13.93;;;;;;;7.66;100.00;-4055.03;5072532;28;20189;-56
2022/11/10 00:04:17;;;;;;;15.80;14.20;;;;;;;7.70;100.00;-4690.34;5064562;28;20210;-56
2022/11/10 00:06:46;;;;;;;16.43;13.33;;;;;;;7.73;100.00;-5325.56;5072524;28;20195;-56
2022/11/10 00:09:13;;;;;;;15.53;14.00;;;;;;;7.89;100.00;-5008.47;5072914;28;20635;-56
2022/11/10 00:11:40;;;;;;;16.93;13.30;;;;;;;7.94;100.00;-4373.22;5072585;28;20184;-57
2022/11/10 00:17:03;;;;;;;14.07;12.80;;;;;;;7.80;100.00;1668.44;5072691;28;20543;-56
2022/11/10 00:19:31;;;;;;;14.40;12.50;;;;;;;7.64;100.00;3895.19;5072647;28;20184;-56
2022/11/10 00:21:58;;;;;;;14.80;13.30;;;;;;;7.54;100.00;4530.78;5073115;28;20195;-56
2022/11/10 00:24:25;;;;;;;12.40;11.40;;;;;;;7.29;100.00;4527.66;5072667;28;20289;-56
2022/11/10 00:26:52;;;;;;;14.40;13.10;;;;;;;7.14;100.00;2935.25;5072487;28;20211;-58
2022/11/10 00:29:22;;;;;;;12.67;11.57;;;;;;;7.13;100.00;1981.16;5072540;28;20185;-57
2022/11/10 00:31:51;;;;;;;15.90;13.30;;;;;;;7.11;100.00;1027.31;5072202;28;20230;-56
2022/11/10 00:34:17;;;;;;;14.80;11.63;;;;;;;7.15;100.00;709.72;5072164;28;20280;-55
2022/11/10 00:36:44;;;;;;;15.60;12.47;;;;;;;7.10;100.00;-561.53;5072072;28;20181;-55
2022/11/10 00:39:12;;;;;;;18.67;13.30;;;;;;;7.04;100.00;-1832.16;5072257;28;20189;-56
2022/11/10 00:41:39;;;;;;;12.90;11.63;;;;;;;7.00;100.00;-2149.72;5072309;28;20181;-55
2022/11/10 00:44:05;;;;;;;12.90;11.90;;;;;;;6.99;100.00;-3419.38;5071893;28;20184;-56
2022/11/10 00:46:34;;;;;;;15.50;11.10;;;;;;;6.77;100.00;-4687.97;5054609;28;20207;-57
2022/11/10 00:49:01;;;;;;;12.63;11.00;;;;;;;6.79;100.00;-6273.25;5072079;28;20671;-57
2022/11/10 00:51:29;;;;;;;14.50;11.30;;;;;;;6.89;100.00;-6273.78;5072093;28;20654;-56
2022/11/10 00:53:56;;;;;;;15.03;11.13;;;;;;;6.85;100.00;-5005.31;5071598;28;20259;-56
2022/11/10 00:56:24;;;;;;;10.97;9.93;;;;;;;6.66;100.00;-4370.63;5071669;28;20219;-55
2022/11/10 00:58:51;;;;;;;12.33;11.20;;;;;;;6.80;100.00;-5005.16;5072027;28;20650;-56
2022/11/10 01:01:19;;;;;;;11.87;10.93;;;;;;;6.70;100.00;-5955.84;5063797;28;20195;-55
2022/11/10 01:03:48;;;;;;;17.47;11.27;;;;;;;6.48;100.00;-5954.84;5071657;28;20238;-56
2022/11/10 01:06:16;;;;;;;11.13;10.23;;;;;;;6.61;100.00;-6272.34;5071809;28;20209;-56
2022/11/10 01:08:44;;;;;;;11.80;10.90;;;;;;;6.53;100.00;-6271.88;5071597;28;20185;-57
2022/11/10 01:11:14;;;;;;;14.70;11.27;;;;;;;6.54;100.00;-7222.34;5054682;28;20195;-56
2022/11/10 01:13:42;;;;;;;15.37;11.10;;;;;;;6.34;100.00;-8170.81;5071529;28;20188;-56
2022/11/10 01:16:10;;;;;;;19.23;10.93;;;;;;;6.53;100.00;-10388.19;5071843;28;20650;-57
2022/11/10 01:18:38;;;;;;;14.57;11.37;;;;;;;6.63;100.00;-11022.31;5071504;28;20187;-56
2022/11/10 01:21:08;;;;;;;11.43;10.53;;;;;;;6.54;100.00;-11337.44;5071956;28;20533;-57
2022/11/10 01:23:37;;;;;;;12.63;10.53;;;;;;;6.56;100.00;-11337.72;5071427;28;20630;-56
2022/11/10 01:26:07;;;;;;;11.10;10.03;;;;;;;6.54;100.00;-11337.50;5054105;28;20204;-56
2022/11/10 01:28:35;;;;;;;11.60;10.47;;;;;;;6.57;100.00;-11654.25;5071461;28;20207;-56
2022/11/10 01:31:04;;;;;;;14.13;11.53;;;;;;;6.58;100.00;-11970.72;5071492;28;20547;-56
2022/11/10 01:33:33;;;;;;;12.53;11.33;;;;;;;6.58;100.00;-11338.03;5071315;28;20199;-56
2022/11/10 01:36:01;;;;;;;11.73;10.67;;;;;;;6.59;100.00;-10705.38;5071621;28;20181;-55
2022/11/10 01:38:30;;;;;;;14.43;11.80;;;;;;;6.79;100.00;-11973.69;5071466;28;20184;-56
2022/11/10 01:40:58;;;;;;;12.67;11.37;;;;;;;6.83;100.00;-11341.34;5072093;28;20191;-56
2022/11/10 01:43:26;;;;;;;12.53;11.17;;;;;;;6.81;100.00;-9758.31;5071716;28;20195;-56
2022/11/10 01:45:54;;;;;;;12.27;11.10;;;;;;;6.63;100.00;-7539.75;5071246;28;20730;-56
2022/11/10 01:48:30;;;;;;;11.23;10.50;;;;;;;6.66;100.00;-7856.72;5071568;28;20643;-56
2022/11/10 01:51:02;;;;;;;10.97;9.87;;;;;;;6.88;100.00;-7224.66;5071621;28;20241;-57
2022/11/10 01:53:34;;;;;;;10.87;9.93;;;;;;;6.95;100.00;-6274.03;5071217;28;20195;-56
2022/11/10 01:56:03;;;;;;;11.60;10.67;;;;;;;6.66;100.00;-5004.72;5071357;28;20189;-56
2022/11/10 01:58:38;;;;;;;12.50;11.20;;;;;;;6.86;100.00;-4053.81;5071542;28;20196;-56
2022/11/10 02:01:06;;;;;;;10.63;9.57;;;;;;;6.83;100.00;-5005.25;5071091;28;20180;-56
2022/11/10 02:03:39;;;;;;;12.03;9.73;;;;;;;6.81;100.00;-4370.94;5071107;28;20188;-56
2022/11/10 02:06:07;;;;;;;11.27;9.40;;;;;;;6.80;100.00;-5322.25;5072937;28;20201;-56
2022/11/10 02:08:36;;;;;;;10.97;9.87;;;;;;;6.60;100.00;-5004.53;5074977;28;20562;-55
2022/11/10 02:11:04;;;;;;;9.90;9.00;;;;;;;6.66;100.00;-4687.69;5074701;28;20189;-55
2022/11/10 02:13:31;;;;;;;9.13;8.33;;;;;;;6.61;100.00;-6589.19;5075168;28;20188;-56
2022/11/10 02:15:58;;;;;;;8.63;8.00;;;;;;;6.64;100.00;-8173.28;5074615;28;20283;-56
2022/11/10 02:18:25;;;;;;;9.60;8.80;;;;;;;6.82;100.00;-10708.22;5074787;28;20181;-56
2022/11/10 02:20:54;;;;;;;9.10;8.20;;;;;;;6.83;100.00;-11024.88;5074697;28;20200;-56
2022/11/10 02:23:43;;;;;;;8.77;8.17;;;;;;;6.83;100.00;-10075.09;5074871;28;20193;-55
2022/11/10 02:26:11;;;;;;;8.57;8.13;;;;;;;6.87;100.00;-8808.75;5074471;28;20247;-55
2022/11/10 02:28:38;;;;;;;8.50;7.70;;;;;;;6.65;100.00;-5321.72;5074832;28;20193;-56
2022/11/10 02:31:08;;;;;;;8.27;7.57;;;;;;;6.52;100.00;-3102.00;5074749;28;20555;-55
2022/11/10 02:33:35;;;;;;;8.53;7.77;;;;;;;6.46;100.00;-3736.16;5074631;28;20185;-56
2022/11/10 02:36:04;;;;;;;8.23;7.73;;;;;;;6.57;100.00;-4053.38;5074418;28;20192;-56
2022/11/10 02:38:31;;;;;;;8.57;7.37;;;;;;;6.46;100.00;-3102.00;5074401;28;20189;-56
2022/11/10 02:40:57;;;;;;;7.90;7.13;;;;;;;6.46;100.00;-2784.88;5074602;28;20632;-56
2022/11/10 02:43:24;;;;;;;8.73;7.47;;;;;;;6.41;100.00;-2467.78;5074487;28;20192;-56
2022/11/10 02:45:51;;;;;;;8.70;7.90;;;;;;;6.47;100.00;-1833.31;5074249;28;20274;-55
2022/11/10 02:48:19;;;;;;;9.20;8.60;;;;;;;6.57;100.00;-2150.38;5074492;28;20185;-57
2022/11/10 02:50:46;;;;;;;8.70;7.80;;;;;;;6.59;100.00;-2467.59;5074076;28;20185;-55
2022/11/10 02:53:14;;;;;;;7.87;7.43;;;;;;;6.59;100.00;-1833.06;5073955;28;20268;-56
2022/11/10 02:55:41;;;;;;;9.10;8.23;;;;;;;6.32;100.00;-3419.03;5074370;28;20606;-57
2022/11/10 02:58:08;;;;;;;8.50;7.97;;;;;;;6.58;100.00;-3736.28;5073915;28;20189;-57
2022/11/10 03:00:35;;;;;;;8.63;7.93;;;;;;;6.63;100.00;-3419.19;5073745;28;20196;-56
2022/11/10 03:03:02;;;;;;;7.83;7.43;;;;;;;6.60;100.00;-2784.81;5073938;28;20184;-55
2022/11/10 03:05:30;;;;;;;8.83;7.93;;;;;;;6.60;100.00;-1515.75;5073956;28;20622;-55
2022/11/10 03:07:59;;;;;;;9.00;8.00;;;;;;;6.48;100.00;-881.44;5073792;28;20189;-56
2022/11/10 03:10:28;;;;;;;9.57;8.03;;;;;;;6.30;100.00;-882.06;5073722;28;20185;-56
2022/11/10 03:12:55;;;;;;;9.93;8.10;;;;;;;6.41;100.00;-1198.94;5073891;28;20658;-57
2022/11/10 03:15:23;;;;;;;8.57;7.97;;;;;;;6.28;100.00;-882.16;5073875;28;20195;-56
2022/11/10 03:17:50;;;;;;;9.13;8.37;;;;;;;6.22;100.00;-2150.91;5073863;28;20188;-56
2022/11/10 03:20:17;;;;;;;9.73;8.83;;;;;;;6.23;100.00;-3735.91;5074329;28;20193;-56
2022/11/10 03:22:44;;;;;;;9.67;8.87;;;;;;;6.13;100.00;-5953.22;5074056;28;20654;-55
2022/11/10 03:25:12;;;;;;;11.90;9.70;;;;;;;5.95;100.00;-8484.00;5073690;28;20282;-57
2022/11/10 03:27:40;;;;;;;11.23;10.10;;;;;;;5.94;100.00;-10381.28;5072841;28;20203;-56
2022/11/10 03:30:08;;;;;;;10.30;9.27;;;;;;;5.90;100.00;-11012.91;5073322;28;20188;-56
2022/11/10 03:32:35;;;;;;;9.97;9.20;;;;;;;5.87;100.00;-11644.59;5073180;28;20228;-56
2022/11/10 03:35:02;;;;;;;10.23;9.30;;;;;;;5.96;100.00;-11961.81;5073172;28;20189;-57
2022/11/10 03:37:29;;;;;;;9.57;8.77;;;;;;;6.14;100.00;-11964.41;5073352;28;20600;-56
2022/11/10 03:39:56;;;;;;;9.43;8.83;;;;;;;6.31;100.00;-12599.16;5073195;28;20191;-55
2022/11/10 03:42:23;;;;;;;9.60;8.90;;;;;;;6.15;100.00;-11648.38;5073118;28;20180;-55
2022/11/10 03:44:51;;;;;;;12.43;10.47;;;;;;;6.37;100.00;-10069.97;5073041;28;20185;-56
2022/11/10 03:47:18;;;;;;;11.87;10.20;;;;;;;6.34;100.00;-8170.81;5065354;28;20196;-56
2022/11/10 03:49:45;;;;;;;9.97;9.03;;;;;;;6.38;100.00;-6904.63;5072914;28;20189;-56
2022/11/10 03:52:12;;;;;;;9.87;9.13;;;;;;;6.37;100.00;-6904.53;5073179;28;20192;-56
2022/11/10 03:54:39;;;;;;;9.57;8.67;;;;;;;6.39;100.00;-7854.63;5072818;28;20181;-58
2022/11/10 03:57:05;;;;;;;10.10;9.27;;;;;;;6.53;100.00;-7538.97;5072561;28;20188;-55
2022/11/10 03:59:32;;;;;;;9.20;8.63;;;;;;;6.59;100.00;-6905.88;5073018;28;20583;-55
2022/11/10 04:02:01;;;;;;;10.43;9.50;;;;;;;6.26;100.00;-5637.06;5072428;28;20180;-55
2022/11/10 04:09:57;;;;;;;12.30;9.40;;;;;;;6.17;100.00;-5003.22;5072753;28;20180;-56
2022/11/10 04:18:19;;;;;;;9.13;8.27;;;;;;;6.09;100.00;-5953.00;5072692;28;20176;-56
2022/11/10 04:20:44;;;;;;;9.17;8.53;;;;;;;5.94;100.00;-5952.34;5072023;28;20293;-57
2022/11/10 04:23:29;;;;;;;11.07;8.37;;;;;;;5.86;100.00;-6901.41;5072329;28;20184;-55
2022/11/10 04:28:45;;;;;;;9.50;8.60;;;;;;;5.98;100.00;-6269.06;5072029;28;20176;-55
2022/11/10 04:31:12;;;;;;;10.47;9.50;;;;;;;6.11;100.00;-6586.38;5071962;28;20191;-56
2022/11/10 04:33:41;;;;;;;10.57;9.67;;;;;;;5.95;100.00;-8484.00;5072450;28;20536;-56
2022/11/10 04:36:10;;;;;;;11.20;9.47;;;;;;;5.69;100.00;-10062.25;5072351;28;20196;-55
2022/11/10 04:38:38;;;;;;;17.00;9.93;;;;;;;5.68;100.00;-11325.97;5072322;28;20184;-55
2022/11/10 04:41:05;;;;;;;17.00;9.10;;;;;;;5.98;100.00;-11646.13;5072219;28;20185;-54
2022/11/10 04:43:32;;;;;;;9.70;8.87;;;;;;;6.05;100.00;-11014.78;5071852;28;20185;-56
2022/11/10 04:45:59;;;;;;;9.93;9.03;;;;;;;6.21;100.00;-11649.28;5072142;28;20211;-56
2022/11/10 04:48:27;;;;;;;15.93;9.47;;;;;;;6.11;100.00;-10699.41;5072157;28;20189;-56
2022/11/10 04:50:56;;;;;;;10.50;9.10;;;;;;;6.28;100.00;-9752.53;5071798;28;20189;-57
2022/11/10 04:53:24;;;;;;;10.33;9.50;;;;;;;6.29;100.00;-9119.84;5072141;28;20188;-56
2022/11/10 04:55:51;;;;;;;12.77;9.47;;;;;;;6.37;100.00;-8487.59;5071874;28;20188;-55
2022/11/10 04:58:18;;;;;;;20.00;8.90;;;;;;;6.45;100.00;-7538.44;5063952;28;20663;-55
2022/11/10 05:00:45;;;;;;;17.77;9.20;;;;;;;6.19;100.00;-7220.00;5071785;28;20266;-56
2022/11/10 05:03:13;;;;;;;12.90;9.67;;;;;;;6.33;100.00;-6904.28;5071673;28;20191;-56
2022/11/10 05:05:40;;;;;;;21.60;10.57;;;;;;;6.63;100.00;-7539.72;5071952;28;20227;-55
2022/11/10 05:08:09;;;;;;;23.97;12.83;;;;;;;6.75;100.00;-8174.22;5071560;28;20188;-56
2022/11/10 05:10:37;;;;;;;29.57;14.23;;;;;;;6.79;100.00;-8491.31;5071871;28;20628;-55
2022/11/10 05:13:04;;;;;;;32.37;14.83;;;;;;;6.75;100.00;-8174.16;5071632;28;20185;-56
2022/11/10 05:15:32;;;;;;;31.57;14.63;;;;;;;6.77;100.00;-7857.59;5071533;28;20263;-57
2022/11/10 05:17:59;;;;;;;28.17;13.17;;;;;;;6.78;100.00;-6907.09;5071497;28;20185;-55
2022/11/10 05:20:27;;;;;;;45.43;14.07;;;;;;;6.73;100.00;-6589.84;5071428;28;20180;-56
2022/11/10 05:25:41;;;;;;;47.67;15.80;;;;;;;6.85;100.00;-3736.56;5071462;28;20200;-55
2022/11/10 05:28:10;;;;;;;19.60;12.23;;;;;;;7.00;100.00;-3419.38;5071836;28;20619;-56
2022/11/10 05:30:37;;;;;;;44.70;16.50;;;;;;;6.96;100.00;-3102.03;5071817;28;20189;-57
2022/11/10 05:33:05;;;;;;;55.13;28.40;;;;;;;7.51;100.00;-2148.94;5071199;28;20234;-56
2022/11/10 05:35:32;;;;;;;55.80;27.63;;;;;;;7.69;100.00;-241.09;5071323;28;20189;-55
2022/11/10 05:37:59;;;;;;;72.57;29.63;;;;;;;8.15;100.00;4857.09;5071200;28;20267;-56
2022/11/10 05:40:29;;;;;;;78.70;32.93;;;;;;;8.46;100.00;10606.31;5072378;28;20184;-56
2022/11/10 05:42:58;;;;;;;55.03;24.37;;;;;;;8.75;100.00;19253.69;5075290;28;20192;-57
2022/11/10 05:45:27;;;;;;;37.87;18.40;;;;;;;8.86;100.00;41769.16;5075505;28;20551;-56
2022/11/10 05:47:55;;;;;;;35.77;18.47;;;;;;;9.26;100.00;54090.34;5075768;28;20201;-56
2022/11/10 05:50:22;;;;;;;27.40;13.60;;;;;;;9.53;100.00;57359.41;5075206;28;20189;-55
2022/11/10 05:52:51;;;;;;;32.20;15.10;;;;;;;9.72;100.00;72668.63;5075310;28;20193;-55
2022/11/10 05:55:20;;;;;;;41.23;16.60;;;;;;;9.75;100.00;69413.00;5075071;28;20199;-56
2022/11/10 05:57:49;;;;;;;44.50;16.43;;;;;;;9.90;100.00;69105.06;5075096;28;20276;-57
2022/11/10 06:00:20;;;;;;;44.10;15.73;;;;;;;9.87;100.00;67147.16;5076045;28;20181;-56
2022/11/10 06:02:56;;;;;;;46.97;15.87;;;;;;;10.28;100.00;76330.03;5075196;28;20181;-56
2022/11/10 06:05:23;;;;;;;54.73;14.80;;;;;;;10.89;100.00;82628.94;5075070;28;20204;-56
2022/11/10 06:07:50;;;;;;;47.57;16.43;;;;;;;11.36;100.00;109027.22;5075209;28;20211;-57
2022/11/10 06:10:17;;;;;;;45.50;15.83;;;;;;;11.57;100.00;134605.97;5074878;28;20193;-56
2022/11/10 06:12:44;;;;;;;42.97;13.53;;;;;;;11.99;100.00;146219.56;5074945;28;20194;-55
2022/11/10 06:15:12;;;;;;;39.07;11.27;;;;;;;12.35;100.00;149143.63;5075140;28;20636;-54
2022/11/10 06:17:40;;;;;;;35.83;10.20;;;;;;;12.53;100.00;149187.94;5074922;28;20188;-54
2022/11/10 06:20:08;;;;;;;21.03;9.17;;;;;;;12.67;100.00;149224.66;5074964;28;20528;-56
2022/11/10 06:22:35;;;;;;;23.13;8.73;;;;;;;12.99;100.00;149304.41;5075288;28;20184;-55
2022/11/10 06:25:02;;;;;;;20.00;8.43;;;;;;;13.49;100.00;149428.63;5074569;28;20207;-57
2022/11/10 06:27:29;;;;;;;18.47;10.90;;;;;;;14.15;100.00;149594.63;5075012;28;20288;-60
2022/11/10 06:29:56;;;;;;;35.50;10.60;;;;;;;14.60;100.00;149707.50;5074676;28;20181;-60
2022/11/10 06:32:23;;;;;;;43.27;10.43;;;;;;;14.53;100.00;149689.75;5074373;28;20232;-59
2022/11/10 06:34:54;;;;;;;39.63;17.03;;;;;;;15.28;100.00;149877.44;5074682;28;20243;-62
2022/11/10 06:37:21;;;;;;;28.40;9.93;;;;;;;15.55;100.00;149946.03;5074313;28;20192;-62
2022/11/10 06:39:48;;;;;;;80.27;32.67;;;;;;;15.89;100.00;150032.34;5057689;28;20647;-62
2022/11/10 06:42:15;;;;;;;35.83;9.70;;;;;;;15.45;100.00;149921.88;5075071;28;20619;-65
2022/11/10 06:44:42;;;;;;;41.53;10.23;;;;;;;15.74;100.00;149994.25;5074582;28;20271;-61
2022/11/10 06:47:09;;;;;;;20.07;7.87;;;;;;;16.18;100.00;150104.69;5074456;28;20722;-62
2022/11/10 06:49:36;;;;;;;28.07;8.47;;;;;;;16.45;100.00;150172.00;5074497;28;20639;-62
2022/11/10 06:52:04;;;;;;;18.97;8.33;;;;;;;16.98;100.00;150304.09;5073932;28;20635;-61
2022/11/10 06:54:31;;;;;;;23.97;8.57;;;;;;;17.55;100.00;150448.97;5074592;28;20226;-63
2022/11/10 06:56:58;;;;;;;15.00;8.50;;;;;;;17.83;100.00;150517.63;5074394;28;20283;-62
2022/11/10 06:59:25;;;;;;;28.43;10.70;;;;;;;17.78;100.00;150507.47;5073738;28;20575;-63
2022/11/10 07:01:52;;;;;;;27.33;12.10;;;;;;;17.88;100.00;150530.34;5056050;28;20187;-61
2022/11/10 07:04:19;;;;;;;23.17;12.73;;;;;;;18.15;100.00;150600.28;5073697;28;20188;-61
2022/11/10 07:06:46;;;;;;;19.23;11.67;;;;;;;18.59;100.00;150710.94;5073739;28;20618;-65
2022/11/10 07:09:15;;;;;;;23.00;12.87;;;;;;;18.22;100.00;150616.78;5073437;28;20196;-62
2022/11/10 07:11:42;;;;;;;20.00;12.90;;;;;;;18.73;100.00;150745.28;5073408;28;20189;-61
2022/11/10 07:14:10;;;;;;;18.87;13.10;;;;;;;18.92;100.00;150792.38;5073572;28;20644;-61
2022/11/10 07:16:37;;;;;;;38.43;14.00;;;;;;;18.70;100.00;150738.94;5073470;28;20276;-61
2022/11/10 07:19:04;;;;;;;39.27;16.00;;;;;;;18.56;100.00;150703.31;5073894;28;20590;-62
2022/11/10 07:21:31;;;;;;;31.20;14.57;;;;;;;18.92;100.00;150792.38;5073270;28;20272;-61
2022/11/10 07:23:58;;;;;;;33.13;16.40;;;;;;;19.27;100.00;150881.41;5072899;28;20195;-59
2022/11/10 07:26:26;;;;;;;41.83;27.50;;;;;;;19.70;100.00;150988.34;5073193;28;20204;-60
2022/11/10 07:28:53;;;;;;;28.83;19.73;;;;;;;20.49;100.00;151188.31;5073381;28;20567;-60
2022/11/10 07:31:20;;;;;;;33.60;16.77;;;;;;;21.15;100.00;151355.22;5072699;28;20290;-62
2022/11/10 07:33:47;;;;;;;20.67;16.20;;;;;;;21.90;100.00;151542.59;5073253;28;20208;-61
2022/11/10 07:36:14;;;;;;;25.10;17.40;;;;;;;21.74;100.00;151504.31;5072845;28;20192;-60
2022/11/10 07:38:41;;;;;;;27.30;18.05;;;;;;;21.36;100.00;151408.72;5073408;28;20592;-63
2022/11/10 07:41:08;;;;;;;38.97;19.83;;;;;;;21.08;100.00;151336.06;5072350;28;20196;-61
2022/11/10 07:43:36;;;;;;;27.27;18.30;;;;;;;21.66;100.00;151482.66;5072788;28;20284;-60
2022/11/10 07:46:03;;;;;;;39.42;17.95;;;;;;;21.81;100.00;151520.91;5072711;28;20196;-60
2022/11/10 07:48:30;;;;;;;29.73;17.57;;;;;;;21.40;100.00;151418.94;5072293;28;20185;-61
2022/11/10 07:50:57;;;;;;;18.23;16.52;;;;;;;21.96;100.00;151557.91;5072241;28;20228;-62
2022/11/10 07:53:24;;;;;;;28.25;17.13;;;;;;;22.57;99.25;151712.22;5072810;28;20280;-61
2022/11/10 07:55:51;;;;;;;25.42;17.55;;;;;;;23.21;93.59;151875.50;5054786;28;20189;-62
2022/11/10 07:58:18;;;;;;;28.05;18.77;;;;;;;23.44;91.46;151931.72;5064880;28;20604;-60
2022/11/10 08:00:47;;;;;;;36.53;18.77;;;;;;;23.72;88.83;152003.16;5073245;28;20185;-59
2022/11/10 08:03:16;;;;;;;34.00;20.48;;;;;;;23.36;89.12;151911.25;5073042;28;20687;-63
2022/11/10 08:05:44;;;;;;;37.70;20.90;;;;;;;23.31;89.58;151898.47;5072281;28;20243;-60
2022/11/10 08:08:15;;;;;;;43.85;20.30;;;;;;;23.82;87.61;152028.69;5072568;28;20567;-61
2022/11/10 08:10:42;;;;;;;44.80;21.58;;;;;;;24.96;83.41;152317.38;5072235;28;20235;-60
2022/11/10 08:13:13;;;;;;;47.80;21.48;;;;;;;25.47;76.29;152446.41;5072712;28;20189;-61
2022/11/10 08:15:41;;;;;;;55.60;22.45;;;;;;;26.56;70.76;152721.38;5072377;28;20185;-62
2022/11/10 08:18:16;;;;;;;63.10;22.55;;;;;;;27.89;65.19;153057.88;5072346;28;20191;-62
2022/11/10 08:20:43;;;;;;;51.25;21.83;;;;;;;28.06;63.39;153100.13;5071959;28;20240;-62
2022/11/10 08:23:10;;;;;;;45.95;19.23;;;;;;;29.05;59.83;153351.19;5072190;28;20651;-60
2022/11/10 08:25:37;;;;;;;36.53;14.23;;;;;;;29.23;60.93;153396.00;5071810;28;20221;-62
2022/11/10 08:28:06;;;;;;;39.63;16.63;;;;;;;29.39;60.58;153438.31;5071668;28;20205;-62
2022/11/10 08:30:37;;;;;;;13.02;8.75;;;;;;;29.73;60.54;153522.88;5072063;28;20483;-63
2022/11/10 08:33:09;;;;;;;16.55;12.13;;;;;;;29.72;58.36;153520.28;5071828;28;20725;-61
2022/11/10 08:35:39;;;;;;;32.58;16.30;;;;;;;28.93;60.07;153320.44;5071939;28;20184;-61
2022/11/10 08:38:08;;;;;;;19.33;13.43;;;;;;;26.73;68.54;152764.81;5071085;28;20192;-61
2022/11/10 08:40:35;;;;;;;10.70;9.93;;;;;;;26.67;71.42;152748.22;5071457;28;20185;-61
2022/11/10 08:43:06;;;;;;;17.23;14.93;;;;;;;27.70;66.15;153010.56;5071687;28;20181;-62
2022/11/10 08:45:33;;;;;;;19.85;13.15;;;;;;;27.38;66.38;152927.31;5071605;28;20181;-62
2022/11/10 08:48:01;;;;;;;18.30;14.63;;;;;;;26.68;68.82;152750.78;5071810;28;20394;-63
2022/11/10 08:50:29;;;;;;;22.83;16.90;;;;;;;26.09;73.02;152601.13;5072030;28;20200;-61
2022/11/10 08:53:01;;;;;;;25.70;15.48;;;;;;;25.94;74.63;152564.03;5071417;28;20201;-60
2022/11/10 08:55:28;;;;;;;83.55;72.20;;;;;;;26.18;71.59;152624.16;5071847;28;20551;-60
2022/11/10 08:57:58;;;;;;;16.27;14.48;;;;;;;25.80;74.44;152528.28;5071319;28;20181;-62
2022/11/10 09:00:27;;;;;;;21.25;13.63;;;;;;;24.91;81.30;152303.31;5072244;28;20189;-61
2022/11/10 09:02:54;;;;;;;17.65;12.38;;;;;;;24.00;88.26;152073.41;5071741;28;20228;-61
2022/11/10 09:05:25;;;;;;;6.15;5.85;;;;;;;23.51;91.84;151949.56;5071271;28;20195;-61
2022/11/10 09:07:52;;;;;;;7.85;7.20;;;;;;;23.78;90.56;152018.50;5071074;28;20215;-61
2022/11/10 09:10:20;;;;;;;5.55;5.22;;;;;;;24.45;86.57;152187.06;5070233;28;20635;-61
2022/11/10 09:12:49;;;;;;;7.18;6.47;;;;;;;24.73;87.10;152258.59;5071540;28;20547;-61
2022/11/10 09:15:18;;;;;;;4.30;4.10;;;;;;;24.90;81.95;152300.78;5070879;28;20246;-62
2022/11/10 09:17:45;;;;;;;3.72;3.42;;;;;;;24.92;81.41;152307.16;5071505;28;20233;-60
2022/11/10 09:20:12;;;;;;;4.18;3.97;;;;;;;24.45;84.33;152187.06;5071324;28;20539;-60
2022/11/10 09:22:39;;;;;;;4.78;4.45;;;;;;;25.29;81.58;152399.19;5071153;28;20709;-62
2022/11/10 09:25:07;;;;;;;3.95;3.63;;;;;;;24.07;86.80;152092.53;5071010;28;20200;-61
2022/11/10 09:27:38;;;;;;;2.40;2.30;;;;;;;24.52;83.41;152204.97;5070803;28;20289;-61
2022/11/10 09:30:06;;;;;;;2.58;2.47;;;;;;;24.03;85.94;152082.31;5071700;28;20276;-62
2022/11/10 09:32:33;;;;;;;4.78;2.40;;;;;;;22.54;96.60;151704.53;5056942;28;20233;-62
2022/11/10 09:35:01;;;;;;;2.55;2.45;;;;;;;22.92;96.19;151801.50;5050968;28;20272;-61
2022/11/10 09:37:28;;;;;;;2.50;2.40;;;;;;;23.26;93.62;151885.72;5050639;28;20186;-61
2022/11/10 09:39:55;;;;;;;2.95;2.20;;;;;;;23.19;91.53;151870.41;5050990;28;20196;-62
2022/11/10 09:42:30;;;;;;;2.42;2.33;;;;;;;22.59;95.96;151718.56;5051431;28;20224;-62
2022/11/10 09:45:04;;;;;;;2.55;2.45;;;;;;;23.01;96.00;151824.47;5051018;28;20583;-60
2022/11/10 09:47:40;;;;;;;2.67;2.47;;;;;;;22.54;97.64;151704.53;5051212;28;20230;-61
2022/11/10 09:50:11;;;;;;;2.67;2.42;;;;;;;23.17;94.85;151865.28;5050564;28;20200;-62
2022/11/10 09:52:39;;;;;;;2.58;2.47;;;;;;;23.98;89.31;152069.53;5051159;28;20192;-60
2022/11/10 09:55:21;;;;;;;2.90;2.00;;;;;;;23.62;91.07;151977.66;5050961;28;20259;-61
2022/11/10 09:57:51;;;;;;;2.33;2.22;;;;;;;23.84;90.47;152032.56;5050958;28;20689;-61
2022/11/10 10:00:20;;;;;;;2.35;2.25;;;;;;;24.24;86.87;152133.44;5050681;28;20192;-61
2022/11/10 10:02:56;;;;;;;2.25;2.05;;;;;;;24.06;86.43;152088.72;5051004;28;20221;-62
2022/11/10 10:05:50;;;;;;;2.20;1.98;;;;;;;24.20;86.47;152123.22;5043599;28;20185;-62
2022/11/10 10:08:27;;;;;;;1.92;1.83;;;;;;;23.23;92.64;151880.63;5050620;28;20320;-61
2022/11/10 10:11:05;;;;;;;1.95;1.85;;;;;;;22.83;93.88;151777.31;5050682;28;20365;-62
2022/11/10 10:13:52;;;;;;;2.72;2.10;;;;;;;22.57;99.04;151712.22;5050591;28;20242;-61
2022/11/10 10:16:27;;;;;;;2.85;2.17;;;;;;;23.07;95.15;151838.53;5051074;28;20189;-60
2022/11/10 10:18:59;;;;;;;2.25;2.15;;;;;;;22.97;95.98;151813.00;5050506;28;20309;-61
2022/11/10 10:21:31;;;;;;;2.10;2.00;;;;;;;;;;5051099;28;20217;-60
2022/11/10 10:24:01;;;;;;;2.45;1.50;;;;;;;23.66;93.39;151989.16;5050519;28;20320;-60
2022/11/10 10:26:31;;;;;;;2.30;2.20;;;;;;;24.07;89.02;152092.53;5051885;28;20181;-61
2022/11/10 10:29:02;;;;;;;1.90;1.90;;;;;;;24.09;89.08;152097.66;5054556;28;20664;-60
2022/11/10 10:31:35;;;;;;;2.20;1.98;;;;;;;24.00;89.33;152074.69;5059268;28;20231;-59
2022/11/10 10:34:03;;;;;;;2.33;2.22;;;;;;;22.54;98.91;151704.53;5074004;28;20187;-59
2022/11/10 10:36:31;;;;;;;4.25;2.70;;;;;;;22.84;99.26;151779.81;5074411;28;20220;-60
2022/11/10 10:39:04;;;;;;;2.83;2.60;;;;;;;23.94;91.55;152059.34;5074122;28;20216;-59
2022/11/10 10:41:33;;;;;;;2.72;2.63;;;;;;;24.41;88.30;152178.13;5074080;28;20184;-60
2022/11/10 10:44:02;;;;;;;3.03;2.83;;;;;;;24.68;88.44;152244.53;5074453;28;20234;-60
2022/11/10 10:46:30;;;;;;;3.17;2.50;;;;;;;24.66;85.44;152239.41;5074144;28;20205;-58
2022/11/10 10:49:13;;;;;;;2.97;2.22;;;;;;;24.65;85.37;152236.88;5073999;28;20644;-59
2022/11/10 10:51:41;;;;;;;2.40;2.30;;;;;;;23.76;91.18;152013.41;5074049;28;20189;-58
2022/11/10 10:54:24;;;;;;;2.00;1.90;;;;;;;22.59;100.00;151718.56;5074421;28;20189;-59
2022/11/10 10:57:00;;;;;;;2.17;1.95;;;;;;;22.83;98.82;151778.53;5074587;28;20563;-60
2022/11/10 10:59:29;;;;;;;2.00;1.90;;;;;;;22.62;100.00;151724.94;5057067;28;20283;-61
2022/11/10 11:01:57;;;;;;;2.13;2.03;;;;;;;22.67;100.00;151738.97;5073766;28;20184;-60
2022/11/10 11:04:32;;;;;;;2.40;2.20;;;;;;;22.80;100.00;151770.91;5074225;28;20215;-61
2022/11/10 11:07:01;;;;;;;3.10;2.20;;;;;;;21.72;100.00;151497.97;5074210;28;20184;-60
2022/11/10 11:09:30;;;;;;;1.95;1.85;;;;;;;21.83;100.00;151526.00;5073732;28;20623;-61
2022/11/10 11:12:05;;;;;;;1.98;1.88;;;;;;;21.60;100.00;151468.59;5073515;28;20177;-60
2022/11/10 11:14:33;;;;;;;2.67;2.58;;;;;;;20.99;100.00;151314.41;5073521;28;20224;-60
2022/11/10 11:17:01;;;;;;;2.70;2.50;;;;;;;20.26;100.00;151129.66;5073578;28;20193;-60
2022/11/10 11:19:32;;;;;;;5.43;2.80;;;;;;;19.12;100.00;150844.53;5073337;28;20271;-58
2022/11/10 11:22:28;;;;;;;3.17;2.97;;;;;;;18.35;100.00;150648.59;5073369;28;20185;-59
2022/11/10 11:25:08;;;;;;;2.90;2.60;;;;;;;18.09;100.00;150585.00;5073506;28;20216;-60
2022/11/10 11:27:41;;;;;;;2.50;2.40;;;;;;;17.29;100.00;150382.88;5073236;28;20637;-60
2022/11/10 11:30:21;;;;;;;2.10;2.00;;;;;;;16.88;100.00;150280.00;5072757;28;20284;-60
2022/11/10 11:33:32;;;;;;;2.23;2.13;;;;;;;16.92;100.00;150288.88;5072839;28;20361;-60
2022/11/10 11:36:07;;;;;;;3.17;2.87;;;;;;;16.56;100.00;150199.91;5073044;28;20185;-60
2022/11/10 11:38:49;;;;;;;3.40;2.53;;;;;;;16.48;100.00;150178.31;5071705;28;20306;-59
2022/11/10 11:41:29;;;;;;;4.30;2.40;;;;;;;16.55;100.00;150196.13;5073020;28;20188;-61
2022/11/10 11:44:19;;;;;;;2.80;2.70;;;;;;;16.15;100.00;150095.81;5073125;28;20235;-60
2022/11/10 11:46:56;;;;;;;3.43;3.23;;;;;;;16.25;100.00;150121.22;5065335;28;20203;-59
2022/11/10 11:49:38;;;;;;;2.80;2.70;;;;;;;16.38;100.00;150154.19;5065193;28;20220;-60